createdAt,value
2018-12-03T00:01:59.550Z,13.20
2018-12-03T00:04:41.345Z,13.20
2018-12-03T00:07:23.110Z,13.20
2018-12-03T00:10:04.628Z,13.10
2018-12-03T00:12:46.420Z,13.10
2018-12-03T00:15:27.902Z,13.00
2018-12-03T00:18:09.503Z,12.90
2018-12-03T00:20:51.387Z,12.90
2018-12-03T00:23:32.872Z,12.90
2018-12-03T00:26:14.566Z,12.90
2018-12-03T00:28:56.176Z,12.90
2018-12-03T00:31:37.744Z,13.00
2018-12-03T00:34:19.337Z,13.00
2018-12-03T00:37:00.920Z,12.90
2018-12-03T00:39:42.714Z,12.80
2018-12-03T00:42:24.404Z,12.80
2018-12-03T00:45:05.932Z,12.80
2018-12-03T00:47:47.270Z,12.80
2018-12-03T00:50:29.170Z,12.70
2018-12-03T00:53:10.760Z,12.80
2018-12-03T00:55:52.466Z,12.80
2018-12-03T00:58:34.154Z,12.80
2018-12-03T01:01:15.831Z,12.80
2018-12-03T01:03:57.746Z,12.80
2018-12-03T01:06:39.026Z,12.70
2018-12-03T01:09:20.700Z,12.70
2018-12-03T01:12:02.809Z,12.70
2018-12-03T01:14:44.193Z,12.60
2018-12-03T01:17:25.593Z,12.70
2018-12-03T01:20:07.362Z,12.70
2018-12-03T01:22:49.161Z,12.70
2018-12-03T01:25:30.785Z,12.60
2018-12-03T01:28:13.053Z,12.60
2018-12-03T01:30:54.230Z,12.60
2018-12-03T01:33:36.527Z,12.70
2018-12-03T01:36:18.533Z,12.70
2018-12-03T01:39:00.022Z,12.70
2018-12-03T01:41:41.604Z,12.70
2018-12-03T01:44:23.200Z,12.70
2018-12-03T01:47:04.990Z,12.60
2018-12-03T01:49:46.481Z,12.60
2018-12-03T01:52:27.968Z,12.50
2018-12-03T01:55:09.465Z,12.50
2018-12-03T01:57:51.160Z,12.50
2018-12-03T02:00:32.249Z,12.50
2018-12-03T02:03:14.011Z,12.50
2018-12-03T02:05:55.805Z,12.50
2018-12-03T02:08:37.194Z,12.50
2018-12-03T02:11:18.776Z,12.50
2018-12-03T02:14:00.367Z,12.60
2018-12-03T02:16:41.873Z,12.60
2018-12-03T02:19:23.645Z,12.50
2018-12-03T02:22:05.339Z,12.50
2018-12-03T02:24:46.927Z,12.50
2018-12-03T02:27:28.653Z,12.50
2018-12-03T02:30:10.206Z,12.40
2018-12-03T02:32:51.789Z,12.40
2018-12-03T02:35:33.895Z,12.40
2018-12-03T02:38:14.894Z,12.40
2018-12-03T02:40:57.211Z,12.40
2018-12-03T02:43:38.353Z,12.40
2018-12-03T02:46:20.453Z,12.40
2018-12-03T02:49:02.497Z,12.40
2018-12-03T02:51:43.739Z,12.40
2018-12-03T02:54:25.542Z,12.40
2018-12-03T02:57:07.167Z,12.40
2018-12-03T02:59:48.505Z,12.40
2018-12-03T03:02:30.397Z,12.40
2018-12-03T03:05:12.109Z,12.30
2018-12-03T03:07:54.148Z,12.30
2018-12-03T03:10:35.188Z,12.20
2018-12-03T03:13:16.955Z,12.20
2018-12-03T03:15:58.446Z,12.20
2018-12-03T03:18:40.137Z,12.20
2018-12-03T03:21:22.132Z,12.20
2018-12-03T03:24:03.652Z,12.30
2018-12-03T03:26:44.596Z,12.20
2018-12-03T03:29:26.384Z,12.30
2018-12-03T03:32:08.282Z,12.30
2018-12-03T03:34:49.985Z,12.20
2018-12-03T03:37:31.971Z,12.20
2018-12-03T03:40:13.453Z,12.20
2018-12-03T03:42:55.047Z,12.20
2018-12-03T03:45:37.058Z,12.20
2018-12-03T03:48:18.325Z,12.20
2018-12-03T03:50:59.946Z,12.20
2018-12-03T03:53:41.405Z,12.20
2018-12-03T03:56:22.376Z,12.20
2018-12-03T03:59:03.866Z,12.30
2018-12-03T04:01:45.450Z,12.20
2018-12-03T04:04:26.322Z,12.20
2018-12-03T04:07:08.015Z,12.20
2018-12-03T04:09:49.601Z,12.20
2018-12-03T04:12:30.882Z,12.20
2018-12-03T04:15:12.675Z,12.30
2018-12-03T04:17:54.370Z,12.30
2018-12-03T04:20:35.849Z,12.30
2018-12-03T04:23:17.572Z,12.30
2018-12-03T04:25:59.899Z,12.30
2018-12-03T04:28:40.926Z,12.30
2018-12-03T04:31:22.552Z,12.20
2018-12-03T04:34:04.423Z,12.20
2018-12-03T04:36:46.103Z,12.20
2018-12-03T04:39:27.080Z,12.20
2018-12-03T04:42:09.523Z,12.20
2018-12-03T04:44:50.673Z,12.10
2018-12-03T04:47:32.212Z,12.10
2018-12-03T04:50:14.047Z,12.10
2018-12-03T04:52:55.841Z,12.00
2018-12-03T04:55:37.430Z,12.00
2018-12-03T04:58:19.334Z,12.00
2018-12-03T05:01:01.119Z,12.00
2018-12-03T05:03:42.406Z,12.00
2018-12-03T05:06:24.195Z,11.90
2018-12-03T05:09:05.790Z,11.90
2018-12-03T05:11:47.602Z,11.90
2018-12-03T05:14:29.680Z,11.90
2018-12-03T05:17:11.084Z,11.90
2018-12-03T05:19:53.264Z,11.90
2018-12-03T05:22:34.754Z,11.90
2018-12-03T05:25:19.126Z,11.90
2018-12-03T05:27:57.932Z,11.90
2018-12-03T05:30:39.416Z,11.90
2018-12-03T05:33:21.148Z,11.90
2018-12-03T05:36:02.898Z,12.00
2018-12-03T05:38:45.002Z,12.00
2018-12-03T05:41:26.183Z,11.90
2018-12-03T05:44:08.080Z,12.00
2018-12-03T05:46:49.576Z,12.10
2018-12-03T05:49:31.355Z,12.10
2018-12-03T05:52:13.153Z,12.10
2018-12-03T05:54:54.765Z,12.10
2018-12-03T05:57:36.133Z,12.10
2018-12-03T06:00:18.324Z,12.10
2018-12-03T06:03:00.423Z,12.20
2018-12-03T06:05:41.282Z,12.20
2018-12-03T06:08:22.986Z,12.40
2018-12-03T06:11:03.962Z,12.50
2018-12-03T06:13:45.354Z,12.70
2018-12-03T06:16:26.833Z,12.80
2018-12-03T06:19:08.526Z,13.00
2018-12-03T06:21:54.026Z,13.20
2018-12-03T06:24:35.184Z,13.30
2018-12-03T06:27:16.874Z,13.40
2018-12-03T06:29:58.610Z,13.50
2018-12-03T06:32:40.313Z,13.50
2018-12-03T06:35:22.054Z,13.50
2018-12-03T06:38:03.541Z,13.50
2018-12-03T06:40:45.230Z,13.60
2018-12-03T06:43:27.022Z,13.60
2018-12-03T06:46:08.612Z,13.60
2018-12-03T06:48:50.241Z,13.60
2018-12-03T06:51:31.891Z,13.60
2018-12-03T06:54:13.316Z,13.60
2018-12-03T06:56:55.580Z,13.60
2018-12-03T06:59:37.169Z,13.60
2018-12-03T07:02:18.377Z,13.60
2018-12-03T07:04:59.956Z,13.60
2018-12-03T07:07:40.911Z,13.60
2018-12-03T07:10:23.013Z,13.60
2018-12-03T07:13:04.291Z,13.60
2018-12-03T07:15:45.923Z,13.60
2018-12-03T07:18:27.486Z,13.70
2018-12-03T07:21:08.545Z,13.70
2018-12-03T07:23:50.236Z,13.80
2018-12-03T07:26:31.538Z,14.00
2018-12-03T07:29:13.214Z,14.20
2018-12-03T07:31:54.185Z,14.60
2018-12-03T07:34:36.081Z,15.10
2018-12-03T07:37:17.875Z,15.60
2018-12-03T07:39:59.259Z,16.10
2018-12-03T07:42:41.247Z,16.70
2018-12-03T07:45:23.050Z,17.30
2018-12-03T07:48:04.234Z,17.70
2018-12-03T07:50:45.688Z,18.30
2018-12-03T07:53:27.509Z,18.90
2018-12-03T07:56:09.028Z,19.50
2018-12-03T07:58:50.694Z,20.00
2018-12-03T08:01:32.286Z,20.50
2018-12-03T08:04:13.864Z,20.70
2018-12-03T08:06:55.356Z,21.00
2018-12-03T08:09:37.250Z,21.20
2018-12-03T08:12:18.822Z,21.10
2018-12-03T08:15:01.769Z,20.90
2018-12-03T08:17:43.154Z,21.00
2018-12-03T08:20:24.628Z,20.90
2018-12-03T08:23:06.243Z,20.30
2018-12-03T08:25:48.007Z,19.70
2018-12-03T08:28:29.492Z,19.20
2018-12-03T08:31:11.492Z,18.80
2018-12-03T08:33:52.670Z,18.40
2018-12-03T08:36:34.157Z,18.10
2018-12-03T08:39:15.602Z,18.00
2018-12-03T08:41:58.051Z,18.00
2018-12-03T08:44:40.063Z,17.90
2018-12-03T08:47:21.983Z,18.00
2018-12-03T08:50:03.329Z,17.80
2018-12-03T08:52:45.540Z,17.90
2018-12-03T08:55:27.429Z,18.10
2018-12-03T08:58:09.569Z,18.20
2018-12-03T09:00:50.503Z,18.20
2018-12-03T09:03:32.110Z,18.00
2018-12-03T09:06:14.111Z,17.80
2018-12-03T09:08:55.373Z,17.70
2018-12-03T09:11:36.674Z,17.70
2018-12-03T09:14:18.344Z,17.70
2018-12-03T09:17:02.416Z,18.40
2018-12-03T09:19:41.026Z,19.20
2018-12-03T09:22:22.804Z,20.00
2018-12-03T09:25:04.392Z,20.20
2018-12-03T09:27:46.083Z,20.60
2018-12-03T09:30:27.976Z,21.40
2018-12-03T09:33:09.158Z,22.50
2018-12-03T09:35:50.545Z,23.50
2018-12-03T09:38:32.263Z,24.20
2018-12-03T09:41:13.924Z,24.40
2018-12-03T09:43:55.618Z,24.40
2018-12-03T09:46:37.138Z,24.20
2018-12-03T09:49:18.738Z,23.70
2018-12-03T09:52:00.301Z,23.30
2018-12-03T09:54:41.872Z,22.70
2018-12-03T09:57:23.664Z,22.40
2018-12-03T10:00:05.557Z,22.00
2018-12-03T10:02:47.863Z,21.50
2018-12-03T10:05:29.564Z,21.00
2018-12-03T10:08:11.069Z,20.60
2018-12-03T10:10:52.630Z,20.40
2018-12-03T10:13:34.265Z,20.40
2018-12-03T10:16:16.937Z,20.60
2018-12-03T10:19:00.457Z,20.90
2018-12-03T10:21:40.273Z,21.40
2018-12-03T10:24:21.803Z,22.20
2018-12-03T10:27:03.185Z,23.00
2018-12-03T10:29:44.672Z,22.70
2018-12-03T10:32:26.369Z,22.60
2018-12-03T10:35:07.965Z,22.30
2018-12-03T10:37:50.117Z,21.90
2018-12-03T10:40:31.865Z,21.60
2018-12-03T10:43:13.589Z,21.10
2018-12-03T10:45:55.150Z,20.70
2018-12-03T10:48:36.348Z,20.50
2018-12-03T10:51:17.995Z,20.30
2018-12-03T10:53:59.686Z,20.20
2018-12-03T10:56:41.586Z,20.60
2018-12-03T10:59:23.300Z,21.40
2018-12-03T11:02:09.881Z,22.10
2018-12-03T11:04:56.595Z,22.50
2018-12-03T11:07:38.281Z,22.70
2018-12-03T11:10:20.075Z,22.40
2018-12-03T11:13:02.306Z,21.90
2018-12-03T11:15:43.457Z,21.70
2018-12-03T11:18:25.559Z,21.30
2018-12-03T11:21:11.068Z,20.90
2018-12-03T11:23:53.960Z,20.80
2018-12-03T11:26:35.155Z,20.80
2018-12-03T11:29:16.930Z,20.70
2018-12-03T11:31:58.656Z,20.60
2018-12-03T11:34:40.311Z,20.80
2018-12-03T11:37:21.904Z,21.10
2018-12-03T11:40:03.696Z,21.40
2018-12-03T11:42:45.214Z,21.70
2018-12-03T11:45:27.487Z,21.70
2018-12-03T11:48:08.465Z,21.90
2018-12-03T11:50:50.889Z,21.90
2018-12-03T11:53:33.200Z,22.00
2018-12-03T11:56:14.864Z,21.90
2018-12-03T11:58:56.531Z,21.90
2018-12-03T12:01:38.615Z,21.70
2018-12-03T12:04:20.559Z,21.60
2018-12-03T12:07:01.635Z,21.60
2018-12-03T12:09:43.380Z,21.70
2018-12-03T12:12:24.922Z,21.60
2018-12-03T12:15:06.291Z,21.30
2018-12-03T12:17:47.983Z,21.30
2018-12-03T12:20:30.052Z,21.50
2018-12-03T12:23:11.570Z,21.80
2018-12-03T12:25:53.279Z,22.10
2018-12-03T12:28:38.251Z,21.90
2018-12-03T12:31:16.595Z,21.70
2018-12-03T12:33:57.926Z,21.90
2018-12-03T12:36:39.207Z,22.00
2018-12-03T12:39:20.795Z,22.00
2018-12-03T12:42:02.385Z,21.80
2018-12-03T12:44:43.984Z,21.90
2018-12-03T12:47:25.684Z,21.90
2018-12-03T12:50:07.816Z,22.50
2018-12-03T12:52:49.417Z,23.60
2018-12-03T12:55:30.766Z,24.90
2018-12-03T12:58:12.530Z,26.00
2018-12-03T13:00:54.437Z,26.70
2018-12-03T13:03:35.897Z,27.10
2018-12-03T13:06:17.915Z,26.60
2018-12-03T13:08:59.617Z,25.80
2018-12-03T13:11:40.768Z,24.90
2018-12-03T13:14:21.548Z,23.80
2018-12-03T13:17:03.445Z,22.90
2018-12-03T13:19:44.949Z,22.30
2018-12-03T13:22:30.299Z,21.70
2018-12-03T13:25:08.522Z,21.00
2018-12-03T13:27:50.038Z,20.60
2018-12-03T13:30:30.879Z,20.30
2018-12-03T13:33:11.851Z,20.10
2018-12-03T13:35:53.250Z,20.00
2018-12-03T13:38:34.209Z,19.80
2018-12-03T13:41:15.798Z,19.80
2018-12-03T13:43:57.491Z,19.80
2018-12-03T13:46:39.079Z,19.60
2018-12-03T13:49:20.225Z,19.60
2018-12-03T13:52:02.330Z,19.60
2018-12-03T13:54:43.474Z,19.60
2018-12-03T13:57:25.365Z,19.50
2018-12-03T14:00:07.229Z,19.40
2018-12-03T14:02:48.316Z,19.40
2018-12-03T14:05:29.995Z,19.40
2018-12-03T14:08:12.096Z,19.40
2018-12-03T14:11:46.932Z,19.30
2018-12-03T14:14:28.419Z,19.30
2018-12-03T14:17:10.621Z,19.20
2018-12-03T14:19:52.110Z,19.20
2018-12-03T14:22:34.006Z,19.20
2018-12-03T14:25:15.553Z,19.10
2018-12-03T14:27:57.283Z,19.10
2018-12-03T14:30:39.180Z,19.10
2018-12-03T14:33:20.045Z,19.00
2018-12-03T14:36:01.696Z,18.90
2018-12-03T14:38:43.433Z,18.80
2018-12-03T14:41:25.524Z,18.80
2018-12-03T14:44:07.021Z,18.70
2018-12-03T14:46:47.901Z,18.60
2018-12-03T14:49:29.789Z,18.50
2018-12-03T14:52:11.488Z,18.50
2018-12-03T14:54:53.000Z,18.40
2018-12-03T14:57:34.558Z,18.30
2018-12-03T15:00:16.347Z,18.30
2018-12-03T15:02:58.200Z,18.20
2018-12-03T15:05:40.187Z,18.20
2018-12-03T15:08:21.012Z,18.10
2018-12-03T15:11:03.192Z,18.10
2018-12-03T15:13:44.704Z,18.00
2018-12-03T15:16:26.288Z,17.90
2018-12-03T15:19:11.567Z,17.80
2018-12-03T15:21:51.515Z,17.80
2018-12-03T15:24:33.107Z,17.80
2018-12-03T15:27:14.690Z,17.70
2018-12-03T15:29:56.592Z,17.60
2018-12-03T15:32:38.322Z,17.50
2018-12-03T15:35:19.668Z,17.50
2018-12-03T15:38:01.156Z,17.40
2018-12-03T15:40:43.047Z,17.40
2018-12-03T15:43:25.147Z,17.40
2018-12-03T15:46:06.224Z,17.30
2018-12-03T15:48:47.931Z,17.20
2018-12-03T15:51:29.958Z,17.10
2018-12-03T15:54:11.914Z,17.10
2018-12-03T15:56:52.988Z,17.10
2018-12-03T15:59:34.888Z,17.00
2018-12-03T16:02:16.372Z,17.00
2018-12-03T16:04:57.978Z,16.90
2018-12-03T16:07:40.481Z,16.80
2018-12-03T16:10:22.203Z,16.80
2018-12-03T16:13:03.357Z,16.60
2018-12-03T16:15:45.239Z,16.50
2018-12-03T16:18:26.824Z,16.40
2018-12-03T16:21:08.413Z,16.20
2018-12-03T16:23:50.822Z,16.10
2018-12-03T16:26:32.514Z,16.10
2018-12-03T16:29:14.634Z,16.10
2018-12-03T16:31:55.894Z,16.00
2018-12-03T16:34:37.354Z,16.00
2018-12-03T16:37:18.458Z,15.90
2018-12-03T16:40:00.354Z,15.90
2018-12-03T16:42:42.454Z,15.80
2018-12-03T16:45:23.939Z,15.80
2018-12-03T16:48:05.374Z,15.70
2018-12-03T16:50:46.401Z,15.60
2018-12-03T16:53:28.036Z,15.60
2018-12-03T16:56:09.578Z,15.60
2018-12-03T16:58:51.372Z,15.50
2018-12-03T17:01:32.564Z,15.40
2018-12-03T17:04:14.408Z,15.40
2018-12-03T17:06:56.088Z,15.30
2018-12-03T17:09:37.789Z,15.40
2018-12-03T17:12:19.417Z,15.40
2018-12-03T17:15:01.005Z,15.40
2018-12-03T17:17:42.844Z,15.40
2018-12-03T17:20:24.303Z,15.40
2018-12-03T17:23:06.078Z,15.50
2018-12-03T17:25:47.872Z,15.60
2018-12-03T17:28:29.459Z,15.60
2018-12-03T17:31:11.054Z,15.60
2018-12-03T17:33:52.784Z,15.60
2018-12-03T17:36:34.127Z,15.70
2018-12-03T17:39:15.630Z,15.70
2018-12-03T17:41:57.308Z,15.80
2018-12-03T17:44:38.708Z,15.80
2018-12-03T17:47:19.582Z,15.80
2018-12-03T17:50:01.352Z,15.80
2018-12-03T17:52:43.559Z,15.90
2018-12-03T17:55:24.836Z,15.90
2018-12-03T17:58:07.248Z,15.90
2018-12-03T18:00:48.327Z,16.00
2018-12-03T18:03:30.155Z,16.10
2018-12-03T18:06:16.942Z,16.10
2018-12-03T18:08:55.049Z,16.10
2018-12-03T18:11:36.825Z,16.10
2018-12-03T18:14:18.547Z,16.20
2018-12-03T18:17:00.310Z,16.20
2018-12-03T18:19:41.843Z,16.10
2018-12-03T18:22:23.795Z,16.20
2018-12-03T18:25:05.502Z,16.20
2018-12-03T18:27:47.179Z,16.30
2018-12-03T18:30:28.811Z,16.30
2018-12-03T18:33:10.595Z,16.30
2018-12-03T18:35:52.256Z,16.30
2018-12-03T18:38:33.635Z,16.40
2018-12-03T18:41:15.326Z,16.30
2018-12-03T18:43:56.935Z,16.30
2018-12-03T18:46:38.606Z,16.40
2018-12-03T18:49:20.107Z,16.40
2018-12-03T18:52:01.682Z,16.30
2018-12-03T18:54:43.487Z,16.30
2018-12-03T18:57:25.186Z,16.30
2018-12-03T19:00:06.141Z,16.30
2018-12-03T19:02:47.933Z,16.30
2018-12-03T19:05:29.727Z,16.30
2018-12-03T19:08:10.915Z,16.20
2018-12-03T19:10:52.906Z,16.20
2018-12-03T19:13:35.265Z,16.20
2018-12-03T19:16:17.126Z,16.20
2018-12-03T19:18:58.695Z,16.10
2018-12-03T19:21:40.387Z,16.20
2018-12-03T19:24:22.282Z,16.20
2018-12-03T19:27:03.672Z,16.10
2018-12-03T19:29:44.850Z,16.10
2018-12-03T19:32:27.077Z,16.00
2018-12-03T19:35:07.941Z,16.00
2018-12-03T19:37:50.408Z,16.00
2018-12-03T19:40:32.121Z,16.00
2018-12-03T19:43:13.814Z,15.90
2018-12-03T19:45:55.345Z,15.80
2018-12-03T19:48:37.196Z,15.80
2018-12-03T19:51:18.563Z,15.70
2018-12-03T19:54:00.372Z,15.60
2018-12-03T19:56:42.472Z,15.50
2018-12-03T19:59:23.552Z,15.40
2018-12-03T20:02:05.343Z,15.30
2018-12-03T20:04:52.460Z,15.20
2018-12-03T20:07:33.646Z,15.20
2018-12-03T20:10:15.332Z,15.10
2018-12-03T20:12:56.817Z,15.10
2018-12-03T20:15:38.438Z,15.00
2018-12-03T20:18:20.303Z,14.90
2018-12-03T20:21:02.955Z,14.90
2018-12-03T20:23:45.102Z,14.90
2018-12-03T20:26:26.095Z,14.70
2018-12-03T20:29:07.884Z,14.70
2018-12-03T20:31:49.501Z,14.60
2018-12-03T20:34:31.657Z,14.60
2018-12-03T20:37:12.958Z,14.60
2018-12-03T20:39:54.550Z,14.50
2018-12-03T20:42:37.293Z,14.40
2018-12-03T20:45:18.689Z,14.40
2018-12-03T20:47:59.928Z,14.30
2018-12-03T20:50:43.639Z,14.30
2018-12-03T20:53:26.871Z,14.30
2018-12-03T20:56:07.664Z,14.30
2018-12-03T20:58:49.598Z,14.30
2018-12-03T21:01:32.503Z,14.30
2018-12-03T21:04:13.760Z,14.30
2018-12-03T21:06:55.495Z,14.30
2018-12-03T21:09:37.282Z,14.30
2018-12-03T21:12:20.370Z,14.30
2018-12-03T21:15:01.861Z,14.30
2018-12-03T21:17:44.265Z,14.30
2018-12-03T21:20:26.449Z,14.30
2018-12-03T21:23:09.112Z,14.30
2018-12-03T21:25:50.676Z,14.20
2018-12-03T21:28:32.257Z,14.20
2018-12-03T21:31:13.952Z,14.20
2018-12-03T21:33:55.537Z,14.30
2018-12-03T21:36:38.269Z,14.20
2018-12-03T21:39:19.741Z,14.20
2018-12-03T21:42:02.147Z,14.10
2018-12-03T21:44:43.621Z,14.10
2018-12-03T21:47:25.120Z,14.10
2018-12-03T21:50:07.298Z,14.10
2018-12-03T21:52:48.347Z,14.10
2018-12-03T21:55:31.270Z,14.00
2018-12-03T21:58:14.034Z,14.10
2018-12-03T22:00:55.418Z,14.10
2018-12-03T22:03:38.442Z,14.20
2018-12-03T22:06:20.015Z,14.20
2018-12-03T22:09:01.764Z,14.40
2018-12-03T22:11:43.521Z,14.50
2018-12-03T22:14:24.903Z,14.70
2018-12-03T22:17:06.385Z,14.80
2018-12-03T22:19:49.033Z,15.00
2018-12-03T22:22:30.586Z,15.30
2018-12-03T22:25:12.470Z,15.50
2018-12-03T22:27:54.992Z,15.60
2018-12-03T22:30:36.593Z,15.60
2018-12-03T22:33:18.108Z,15.70
2018-12-03T22:35:59.654Z,15.80
2018-12-03T22:38:41.346Z,15.90
2018-12-03T22:41:23.243Z,15.90
2018-12-03T22:44:04.779Z,15.90
2018-12-03T22:46:46.432Z,15.90
2018-12-03T22:49:28.215Z,16.00
2018-12-03T22:52:09.702Z,16.10
2018-12-03T22:54:51.393Z,16.10
2018-12-03T22:57:32.931Z,16.00
2018-12-03T23:00:18.561Z,16.00
2018-12-03T23:03:00.965Z,16.00
2018-12-03T23:05:42.150Z,15.90
2018-12-03T23:08:23.539Z,15.90
2018-12-03T23:11:05.231Z,15.70
2018-12-03T23:13:46.916Z,15.60
2018-12-03T23:16:28.609Z,15.50
2018-12-03T23:19:10.092Z,15.40
2018-12-03T23:21:51.783Z,15.30
2018-12-03T23:24:33.624Z,15.10
2018-12-03T23:27:15.200Z,15.10
2018-12-03T23:29:56.871Z,15.00
2018-12-03T23:32:39.774Z,14.90
2018-12-03T23:35:20.968Z,14.80
2018-12-03T23:38:03.464Z,14.70
2018-12-03T23:40:44.539Z,14.70
2018-12-03T23:43:26.524Z,14.60
2018-12-03T23:46:08.138Z,14.50
2018-12-03T23:48:49.411Z,14.40
2018-12-03T23:51:36.022Z,14.40
2018-12-03T23:54:15.046Z,14.30
2018-12-03T23:56:56.741Z,14.30
2018-12-03T23:59:38.374Z,14.10
